sensor_id;sensor_type;location;lat;lon;timestamp;temperature;humidity
2463;DHT22;1243;54.298;10.172;2022-08-19T00:00:07;19.30;15.90
2463;DHT22;1243;54.298;10.172;2022-08-19T00:02:34;19.20;3.30
2463;DHT22;1243;54.298;10.172;2022-08-19T00:05:00;19.10;8.10
2463;DHT22;1243;54.298;10.172;2022-08-19T00:07:26;19.10;14.60
2463;DHT22;1243;54.298;10.172;2022-08-19T00:09:55;19.10;15.80
2463;DHT22;1243;54.298;10.172;2022-08-19T00:12:21;19.10;22.80
2463;DHT22;1243;54.298;10.172;2022-08-19T00:14:47;19.10;24.40
2463;DHT22;1243;54.298;10.172;2022-08-19T00:17:13;19.10;25.40
2463;DHT22;1243;54.298;10.172;2022-08-19T00:19:39;19.10;38.40
2463;DHT22;1243;54.298;10.172;2022-08-19T00:22:06;19.10;41.60
2463;DHT22;1243;54.298;10.172;2022-08-19T00:28:12;19.00;41.50
2463;DHT22;1243;54.298;10.172;2022-08-19T00:30:38;19.10;73.90
2463;DHT22;1243;54.298;10.172;2022-08-19T00:33:07;19.10;77.40
2463;DHT22;1243;54.298;10.172;2022-08-19T00:35:34;19.10;87.70
2463;DHT22;1243;54.298;10.172;2022-08-19T00:37:59;19.20;87.80
2463;DHT22;1243;54.298;10.172;2022-08-19T00:40:26;19.30;87.90
2463;DHT22;1243;54.298;10.172;2022-08-19T00:42:52;19.20;78.50
2463;DHT22;1243;54.298;10.172;2022-08-19T00:45:24;19.20;79.00
2463;DHT22;1243;54.298;10.172;2022-08-19T00:47:49;19.20;70.80
2463;DHT22;1243;54.298;10.172;2022-08-19T00:50:18;19.10;73.80
2463;DHT22;1243;54.298;10.172;2022-08-19T00:52:49;19.10;71.60
2463;DHT22;1243;54.298;10.172;2022-08-19T00:55:24;19.00;70.60
2463;DHT22;1243;54.298;10.172;2022-08-19T00:58:03;19.00;75.60
2463;DHT22;1243;54.298;10.172;2022-08-19T01:00:30;19.00;80.90
2463;DHT22;1243;54.298;10.172;2022-08-19T01:02:57;19.00;81.60
2463;DHT22;1243;54.298;10.172;2022-08-19T01:05:26;19.00;87.60
2463;DHT22;1243;54.298;10.172;2022-08-19T01:07:54;19.10;87.70
2463;DHT22;1243;54.298;10.172;2022-08-19T01:10:24;19.10;87.70
2463;DHT22;1243;54.298;10.172;2022-08-19T01:12:51;19.10;87.80
2463;DHT22;1243;54.298;10.172;2022-08-19T01:15:23;19.10;87.70
2463;DHT22;1243;54.298;10.172;2022-08-19T01:17:50;19.00;87.60
2463;DHT22;1243;54.298;10.172;2022-08-19T01:20:20;19.10;87.70
2463;DHT22;1243;54.298;10.172;2022-08-19T01:22:54;19.10;87.70
2463;DHT22;1243;54.298;10.172;2022-08-19T01:25:24;19.10;87.80
2463;DHT22;1243;54.298;10.172;2022-08-19T01:27:54;19.20;89.40
2463;DHT22;1243;54.298;10.172;2022-08-19T01:30:30;19.20;90.00
2463;DHT22;1243;54.298;10.172;2022-08-19T01:32:57;19.20;87.70
2463;DHT22;1243;54.298;10.172;2022-08-19T01:35:27;19.10;87.70
2463;DHT22;1243;54.298;10.172;2022-08-19T01:37:57;19.20;87.80
2463;DHT22;1243;54.298;10.172;2022-08-19T01:40:26;19.20;87.80
2463;DHT22;1243;54.298;10.172;2022-08-19T01:42:55;19.20;87.80
2463;DHT22;1243;54.298;10.172;2022-08-19T01:45:24;19.20;87.80
2463;DHT22;1243;54.298;10.172;2022-08-19T01:47:50;19.20;87.80
2463;DHT22;1243;54.298;10.172;2022-08-19T01:50:16;19.10;87.80
2463;DHT22;1243;54.298;10.172;2022-08-19T01:52:43;19.20;91.70
2463;DHT22;1243;54.298;10.172;2022-08-19T01:55:35;19.20;94.00
2463;DHT22;1243;54.298;10.172;2022-08-19T01:58:03;19.30;95.60
2463;DHT22;1243;54.298;10.172;2022-08-19T02:00:31;19.30;93.90
2463;DHT22;1243;54.298;10.172;2022-08-19T02:02:58;19.30;91.30
2463;DHT22;1243;54.298;10.172;2022-08-19T02:05:24;19.30;91.40
2463;DHT22;1243;54.298;10.172;2022-08-19T02:07:50;19.30;88.00
2463;DHT22;1243;54.298;10.172;2022-08-19T02:10:21;19.30;88.00
2463;DHT22;1243;54.298;10.172;2022-08-19T02:12:57;19.20;87.70
2463;DHT22;1243;54.298;10.172;2022-08-19T02:15:23;19.10;87.70
2463;DHT22;1243;54.298;10.172;2022-08-19T02:17:50;19.20;90.80
2463;DHT22;1243;54.298;10.172;2022-08-19T02:20:16;19.20;91.70
2463;DHT22;1243;54.298;10.172;2022-08-19T02:22:55;19.20;91.60
2463;DHT22;1243;54.298;10.172;2022-08-19T02:25:21;19.20;92.40
2463;DHT22;1243;54.298;10.172;2022-08-19T02:27:46;19.10;87.70
2463;DHT22;1243;54.298;10.172;2022-08-19T02:30:16;19.10;87.90
2463;DHT22;1243;54.298;10.172;2022-08-19T02:32:44;19.00;87.60
2463;DHT22;1243;54.298;10.172;2022-08-19T02:35:12;19.10;87.70
2463;DHT22;1243;54.298;10.172;2022-08-19T02:37:38;19.00;87.60
2463;DHT22;1243;54.298;10.172;2022-08-19T02:40:22;19.00;87.60
2463;DHT22;1243;54.298;10.172;2022-08-19T02:42:50;19.00;87.60
2463;DHT22;1243;54.298;10.172;2022-08-19T02:45:19;19.00;87.70
2463;DHT22;1243;54.298;10.172;2022-08-19T02:47:45;18.90;89.30
2463;DHT22;1243;54.298;10.172;2022-08-19T02:50:11;18.90;92.70
2463;DHT22;1243;54.298;10.172;2022-08-19T02:52:38;19.00;93.70
2463;DHT22;1243;54.298;10.172;2022-08-19T02:55:05;19.00;92.20
2463;DHT22;1243;54.298;10.172;2022-08-19T02:57:31;19.00;93.10
2463;DHT22;1243;54.298;10.172;2022-08-19T02:59:57;19.00;91.00
2463;DHT22;1243;54.298;10.172;2022-08-19T03:02:23;19.00;91.00
2463;DHT22;1243;54.298;10.172;2022-08-19T03:04:52;19.00;91.80
2463;DHT22;1243;54.298;10.172;2022-08-19T03:07:18;19.10;93.00
2463;DHT22;1243;54.298;10.172;2022-08-19T03:09:44;19.10;90.50
2463;DHT22;1243;54.298;10.172;2022-08-19T03:12:10;19.10;87.70
2463;DHT22;1243;54.298;10.172;2022-08-19T03:14:36;19.10;87.80
2463;DHT22;1243;54.298;10.172;2022-08-19T03:17:03;19.10;87.70
2463;DHT22;1243;54.298;10.172;2022-08-19T03:19:33;19.20;87.80
2463;DHT22;1243;54.298;10.172;2022-08-19T03:21:59;19.20;87.80
2463;DHT22;1243;54.298;10.172;2022-08-19T03:24:27;19.20;87.80
2463;DHT22;1243;54.298;10.172;2022-08-19T03:30:00;19.30;86.40
2463;DHT22;1243;54.298;10.172;2022-08-19T03:32:27;19.30;81.50
2463;DHT22;1243;54.298;10.172;2022-08-19T03:34:56;19.30;73.10
2463;DHT22;1243;54.298;10.172;2022-08-19T03:37:22;19.20;67.80
2463;DHT22;1243;54.298;10.172;2022-08-19T03:39:48;19.20;68.40
2463;DHT22;1243;54.298;10.172;2022-08-19T03:42:14;19.20;65.90
2463;DHT22;1243;54.298;10.172;2022-08-19T03:44:40;19.30;62.60
2463;DHT22;1243;54.298;10.172;2022-08-19T03:47:07;19.20;60.10
2463;DHT22;1243;54.298;10.172;2022-08-19T03:49:33;19.20;58.60
2463;DHT22;1243;54.298;10.172;2022-08-19T03:52:03;19.20;59.80
2463;DHT22;1243;54.298;10.172;2022-08-19T03:54:33;19.20;58.00
2463;DHT22;1243;54.298;10.172;2022-08-19T03:56:59;19.20;60.10
2463;DHT22;1243;54.298;10.172;2022-08-19T03:59:28;19.20;62.90
2463;DHT22;1243;54.298;10.172;2022-08-19T04:01:59;19.30;63.00
2463;DHT22;1243;54.298;10.172;2022-08-19T04:04:26;19.30;61.90
2463;DHT22;1243;54.298;10.172;2022-08-19T04:06:53;19.30;57.30
2463;DHT22;1243;54.298;10.172;2022-08-19T04:09:20;19.30;58.70
2463;DHT22;1243;54.298;10.172;2022-08-19T04:11:52;19.30;60.40
2463;DHT22;1243;54.298;10.172;2022-08-19T04:14:23;19.30;57.60
2463;DHT22;1243;54.298;10.172;2022-08-19T04:16:50;19.30;57.90
2463;DHT22;1243;54.298;10.172;2022-08-19T04:19:18;19.40;61.90
2463;DHT22;1243;54.298;10.172;2022-08-19T04:21:47;19.40;62.30
2463;DHT22;1243;54.298;10.172;2022-08-19T04:24:14;19.50;62.70
2463;DHT22;1243;54.298;10.172;2022-08-19T04:26:40;19.40;54.70
2463;DHT22;1243;54.298;10.172;2022-08-19T04:29:10;19.50;53.90
2463;DHT22;1243;54.298;10.172;2022-08-19T04:31:37;19.50;48.00
2463;DHT22;1243;54.298;10.172;2022-08-19T04:34:09;19.40;41.90
2463;DHT22;1243;54.298;10.172;2022-08-19T04:36:40;19.40;41.90
2463;DHT22;1243;54.298;10.172;2022-08-19T04:39:13;19.40;42.00
2463;DHT22;1243;54.298;10.172;2022-08-19T04:41:40;19.40;42.20
2463;DHT22;1243;54.298;10.172;2022-08-19T04:44:24;19.50;42.40
2463;DHT22;1243;54.298;10.172;2022-08-19T04:46:51;19.40;41.90
2463;DHT22;1243;54.298;10.172;2022-08-19T04:49:20;19.50;42.00
2463;DHT22;1243;54.298;10.172;2022-08-19T04:51:47;19.50;42.10
2463;DHT22;1243;54.298;10.172;2022-08-19T04:54:18;19.40;42.00
2463;DHT22;1243;54.298;10.172;2022-08-19T04:56:49;19.40;41.90
2463;DHT22;1243;54.298;10.172;2022-08-19T04:59:16;19.50;42.00
2463;DHT22;1243;54.298;10.172;2022-08-19T05:01:50;19.50;42.10
2463;DHT22;1243;54.298;10.172;2022-08-19T05:04:18;19.50;42.00
2463;DHT22;1243;54.298;10.172;2022-08-19T05:06:45;19.50;42.10
2463;DHT22;1243;54.298;10.172;2022-08-19T05:09:12;19.50;42.10
2463;DHT22;1243;54.298;10.172;2022-08-19T05:11:38;19.60;42.10
2463;DHT22;1243;54.298;10.172;2022-08-19T05:14:06;19.60;42.10
2463;DHT22;1243;54.298;10.172;2022-08-19T05:16:32;19.60;42.10
2463;DHT22;1243;54.298;10.172;2022-08-19T05:18:58;19.60;42.20
2463;DHT22;1243;54.298;10.172;2022-08-19T05:21:42;19.70;42.30
2463;DHT22;1243;54.298;10.172;2022-08-19T05:24:27;19.70;38.20
2463;DHT22;1243;54.298;10.172;2022-08-19T05:26:56;19.60;29.00
2463;DHT22;1243;54.298;10.172;2022-08-19T05:29:24;19.60;31.80
2463;DHT22;1243;54.298;10.172;2022-08-19T05:31:52;19.70;31.00
2463;DHT22;1243;54.298;10.172;2022-08-19T05:34:38;19.70;30.00
2463;DHT22;1243;54.298;10.172;2022-08-19T05:37:05;19.70;25.80
2463;DHT22;1243;54.298;10.172;2022-08-19T05:39:34;19.70;23.00
2463;DHT22;1243;54.298;10.172;2022-08-19T05:42:07;19.70;24.80
2463;DHT22;1243;54.298;10.172;2022-08-19T05:44:37;19.80;24.90
2463;DHT22;1243;54.298;10.172;2022-08-19T05:47:06;19.80;17.30
2463;DHT22;1243;54.298;10.172;2022-08-19T05:49:33;19.70;17.00
2463;DHT22;1243;54.298;10.172;2022-08-19T05:52:05;19.70;13.40
2463;DHT22;1243;54.298;10.172;2022-08-19T05:54:32;19.70;11.90
2463;DHT22;1243;54.298;10.172;2022-08-19T05:57:00;19.70;12.10
2463;DHT22;1243;54.298;10.172;2022-08-19T05:59:26;19.70;7.80
2463;DHT22;1243;54.298;10.172;2022-08-19T06:01:53;19.60;5.30
2463;DHT22;1243;54.298;10.172;2022-08-19T06:04:28;19.60;9.80
2463;DHT22;1243;54.298;10.172;2022-08-19T06:06:57;19.50;9.90
2463;DHT22;1243;54.298;10.172;2022-08-19T06:09:23;19.60;16.60
2463;DHT22;1243;54.298;10.172;2022-08-19T06:11:53;19.60;18.70
2463;DHT22;1243;54.298;10.172;2022-08-19T06:14:24;19.60;18.20
2463;DHT22;1243;54.298;10.172;2022-08-19T06:16:50;19.60;21.60
2463;DHT22;1243;54.298;10.172;2022-08-19T06:19:19;19.70;22.70
2463;DHT22;1243;54.298;10.172;2022-08-19T06:21:47;19.70;23.70
2463;DHT22;1243;54.298;10.172;2022-08-19T06:24:17;19.70;25.30
2463;DHT22;1243;54.298;10.172;2022-08-19T06:26:45;19.70;23.40
2463;DHT22;1243;54.298;10.172;2022-08-19T06:29:17;19.70;24.50
2463;DHT22;1243;54.298;10.172;2022-08-19T06:31:48;19.80;30.00
2463;DHT22;1243;54.298;10.172;2022-08-19T06:34:19;19.80;28.50
2463;DHT22;1243;54.298;10.172;2022-08-19T06:36:48;19.80;29.40
2463;DHT22;1243;54.298;10.172;2022-08-19T06:39:17;19.80;25.10
2463;DHT22;1243;54.298;10.172;2022-08-19T06:41:48;19.90;28.20
2463;DHT22;1243;54.298;10.172;2022-08-19T06:44:14;20.00;25.10
2463;DHT22;1243;54.298;10.172;2022-08-19T06:46:41;20.00;22.80
2463;DHT22;1243;54.298;10.172;2022-08-19T06:49:08;20.10;18.60
2463;DHT22;1243;54.298;10.172;2022-08-19T06:51:42;20.10;15.40
2463;DHT22;1243;54.298;10.172;2022-08-19T06:54:09;20.10;15.50
2463;DHT22;1243;54.298;10.172;2022-08-19T06:56:35;20.10;17.10
2463;DHT22;1243;54.298;10.172;2022-08-19T06:59:07;20.20;16.10
2463;DHT22;1243;54.298;10.172;2022-08-19T07:01:44;20.20;15.80
2463;DHT22;1243;54.298;10.172;2022-08-19T07:04:13;20.20;4.80
2463;DHT22;1243;54.298;10.172;2022-08-19T07:06:41;20.30;1.00
2463;DHT22;1243;54.298;10.172;2022-08-19T07:09:09;20.30;6.60
2463;DHT22;1243;54.298;10.172;2022-08-19T07:11:35;20.40;8.40
2463;DHT22;1243;54.298;10.172;2022-08-19T07:14:02;20.40;8.80
2463;DHT22;1243;54.298;10.172;2022-08-19T07:16:28;20.50;4.90
2463;DHT22;1243;54.298;10.172;2022-08-19T07:18:55;20.60;1.00
2463;DHT22;1243;54.298;10.172;2022-08-19T07:21:27;20.80;1.00
2463;DHT22;1243;54.298;10.172;2022-08-19T07:23:56;20.80;1.00
2463;DHT22;1243;54.298;10.172;2022-08-19T07:26:28;20.80;1.00
2463;DHT22;1243;54.298;10.172;2022-08-19T07:28:55;20.90;1.00
2463;DHT22;1243;54.298;10.172;2022-08-19T07:31:23;20.90;1.00
2463;DHT22;1243;54.298;10.172;2022-08-19T07:33:51;21.00;1.00
2463;DHT22;1243;54.298;10.172;2022-08-19T07:36:20;21.00;1.00
2463;DHT22;1243;54.298;10.172;2022-08-19T07:38:48;21.00;1.00
2463;DHT22;1243;54.298;10.172;2022-08-19T07:41:19;21.00;1.00
2463;DHT22;1243;54.298;10.172;2022-08-19T07:43:46;20.90;1.00
2463;DHT22;1243;54.298;10.172;2022-08-19T07:46:12;20.90;1.00
2463;DHT22;1243;54.298;10.172;2022-08-19T07:48:41;20.90;1.00
2463;DHT22;1243;54.298;10.172;2022-08-19T07:51:08;20.80;1.00
2463;DHT22;1243;54.298;10.172;2022-08-19T07:53:36;20.80;1.00
2463;DHT22;1243;54.298;10.172;2022-08-19T07:56:03;20.70;1.00
2463;DHT22;1243;54.298;10.172;2022-08-19T07:58:41;20.70;1.00
2463;DHT22;1243;54.298;10.172;2022-08-19T08:01:10;20.60;1.00
2463;DHT22;1243;54.298;10.172;2022-08-19T08:03:37;20.60;1.00
2463;DHT22;1243;54.298;10.172;2022-08-19T08:06:22;20.60;1.00
2463;DHT22;1243;54.298;10.172;2022-08-19T08:09:11;20.50;1.00
2463;DHT22;1243;54.298;10.172;2022-08-19T08:11:51;20.60;1.00
2463;DHT22;1243;54.298;10.172;2022-08-19T08:14:21;20.60;1.00
2463;DHT22;1243;54.298;10.172;2022-08-19T08:16:49;20.60;1.00
2463;DHT22;1243;54.298;10.172;2022-08-19T08:19:44;20.50;1.00
2463;DHT22;1243;54.298;10.172;2022-08-19T08:22:18;20.50;1.00
2463;DHT22;1243;54.298;10.172;2022-08-19T08:25:07;20.40;1.00
2463;DHT22;1243;54.298;10.172;2022-08-19T08:27:41;20.40;1.00
2463;DHT22;1243;54.298;10.172;2022-08-19T08:30:08;20.30;1.00
2463;DHT22;1243;54.298;10.172;2022-08-19T08:32:36;20.30;1.00
2463;DHT22;1243;54.298;10.172;2022-08-19T08:35:11;20.30;1.00
2463;DHT22;1243;54.298;10.172;2022-08-19T08:37:38;20.30;1.00
2463;DHT22;1243;54.298;10.172;2022-08-19T08:43:11;20.30;1.00
2463;DHT22;1243;54.298;10.172;2022-08-19T08:45:47;20.30;1.00
2463;DHT22;1243;54.298;10.172;2022-08-19T08:51:07;20.40;1.00
2463;DHT22;1243;54.298;10.172;2022-08-19T08:53:36;20.30;1.00
2463;DHT22;1243;54.298;10.172;2022-08-19T08:56:06;20.40;1.00
2463;DHT22;1243;54.298;10.172;2022-08-19T08:59:12;20.40;1.00
2463;DHT22;1243;54.298;10.172;2022-08-19T09:01:35;20.50;1.00
2463;DHT22;1243;54.298;10.172;2022-08-19T09:04:06;20.50;1.00
2463;DHT22;1243;54.298;10.172;2022-08-19T09:09:45;20.70;1.00
2463;DHT22;1243;54.298;10.172;2022-08-19T09:15:10;20.80;1.00
2463;DHT22;1243;54.298;10.172;2022-08-19T09:17:37;20.80;1.00
2463;DHT22;1243;54.298;10.172;2022-08-19T09:22:37;20.80;1.00
2463;DHT22;1243;54.298;10.172;2022-08-19T09:25:04;20.80;1.00
2463;DHT22;1243;54.298;10.172;2022-08-19T09:27:30;20.80;1.00
2463;DHT22;1243;54.298;10.172;2022-08-19T09:29:58;20.90;1.00
2463;DHT22;1243;54.298;10.172;2022-08-19T09:32:29;20.90;1.00
2463;DHT22;1243;54.298;10.172;2022-08-19T09:34:56;20.90;1.00
2463;DHT22;1243;54.298;10.172;2022-08-19T09:37:30;20.80;1.00
2463;DHT22;1243;54.298;10.172;2022-08-19T09:39:56;20.80;1.00
2463;DHT22;1243;54.298;10.172;2022-08-19T09:42:23;20.80;1.00
2463;DHT22;1243;54.298;10.172;2022-08-19T09:44:49;20.70;1.00
2463;DHT22;1243;54.298;10.172;2022-08-19T09:47:15;20.70;1.00
2463;DHT22;1243;54.298;10.172;2022-08-19T09:49:41;20.60;1.00
2463;DHT22;1243;54.298;10.172;2022-08-19T09:52:14;20.50;1.00
2463;DHT22;1243;54.298;10.172;2022-08-19T09:54:41;20.50;1.00
2463;DHT22;1243;54.298;10.172;2022-08-19T09:57:10;20.50;1.00
2463;DHT22;1243;54.298;10.172;2022-08-19T09:59:36;20.60;1.00
2463;DHT22;1243;54.298;10.172;2022-08-19T10:02:02;20.60;1.00
2463;DHT22;1243;54.298;10.172;2022-08-19T10:04:28;20.60;1.00
2463;DHT22;1243;54.298;10.172;2022-08-19T10:07:14;20.60;1.00
2463;DHT22;1243;54.298;10.172;2022-08-19T10:09:40;20.60;1.00
2463;DHT22;1243;54.298;10.172;2022-08-19T10:12:07;20.60;1.00
2463;DHT22;1243;54.298;10.172;2022-08-19T10:14:33;20.50;1.00
2463;DHT22;1243;54.298;10.172;2022-08-19T10:17:01;20.50;1.00
2463;DHT22;1243;54.298;10.172;2022-08-19T10:19:30;20.50;1.00
2463;DHT22;1243;54.298;10.172;2022-08-19T10:22:04;20.50;1.00
2463;DHT22;1243;54.298;10.172;2022-08-19T10:24:30;20.50;1.00
2463;DHT22;1243;54.298;10.172;2022-08-19T10:27:02;20.50;1.00
2463;DHT22;1243;54.298;10.172;2022-08-19T10:29:32;20.50;1.00
2463;DHT22;1243;54.298;10.172;2022-08-19T10:32:01;20.60;1.00
2463;DHT22;1243;54.298;10.172;2022-08-19T10:34:28;20.60;1.00
2463;DHT22;1243;54.298;10.172;2022-08-19T10:36:55;20.60;1.00
2463;DHT22;1243;54.298;10.172;2022-08-19T10:39:22;20.60;1.00
2463;DHT22;1243;54.298;10.172;2022-08-19T10:41:48;20.60;1.00
2463;DHT22;1243;54.298;10.172;2022-08-19T10:44:14;20.70;1.00
2463;DHT22;1243;54.298;10.172;2022-08-19T10:46:43;20.70;1.00
2463;DHT22;1243;54.298;10.172;2022-08-19T10:49:10;20.70;1.00
2463;DHT22;1243;54.298;10.172;2022-08-19T10:51:38;20.70;1.00
2463;DHT22;1243;54.298;10.172;2022-08-19T10:54:24;20.70;1.00
2463;DHT22;1243;54.298;10.172;2022-08-19T10:57:13;20.80;1.00
2463;DHT22;1243;54.298;10.172;2022-08-19T10:59:39;20.80;1.00
2463;DHT22;1243;54.298;10.172;2022-08-19T11:02:08;20.80;1.00
2463;DHT22;1243;54.298;10.172;2022-08-19T11:04:36;20.90;1.00
2463;DHT22;1243;54.298;10.172;2022-08-19T11:07:03;20.90;1.00
2463;DHT22;1243;54.298;10.172;2022-08-19T11:09:30;21.00;1.00
2463;DHT22;1243;54.298;10.172;2022-08-19T11:11:56;21.00;1.00
2463;DHT22;1243;54.298;10.172;2022-08-19T11:14:24;21.00;1.00
2463;DHT22;1243;54.298;10.172;2022-08-19T11:16:51;21.00;1.00
2463;DHT22;1243;54.298;10.172;2022-08-19T11:19:19;21.10;1.00
2463;DHT22;1243;54.298;10.172;2022-08-19T11:21:48;21.10;1.00
2463;DHT22;1243;54.298;10.172;2022-08-19T11:24:17;21.20;1.00
2463;DHT22;1243;54.298;10.172;2022-08-19T11:26:44;21.20;1.00
2463;DHT22;1243;54.298;10.172;2022-08-19T11:29:12;21.20;1.00
2463;DHT22;1243;54.298;10.172;2022-08-19T11:31:40;21.20;1.00
2463;DHT22;1243;54.298;10.172;2022-08-19T11:34:11;21.20;1.00
2463;DHT22;1243;54.298;10.172;2022-08-19T11:36:40;21.30;1.00
2463;DHT22;1243;54.298;10.172;2022-08-19T11:39:08;21.20;1.00
2463;DHT22;1243;54.298;10.172;2022-08-19T11:41:34;21.20;1.00
2463;DHT22;1243;54.298;10.172;2022-08-19T11:43:59;21.30;1.00
2463;DHT22;1243;54.298;10.172;2022-08-19T11:46:26;21.30;1.00
2463;DHT22;1243;54.298;10.172;2022-08-19T11:48:56;21.30;1.00
2463;DHT22;1243;54.298;10.172;2022-08-19T11:51:23;21.30;1.00
2463;DHT22;1243;54.298;10.172;2022-08-19T11:53:50;21.30;1.00
2463;DHT22;1243;54.298;10.172;2022-08-19T11:56:17;21.40;1.00
2463;DHT22;1243;54.298;10.172;2022-08-19T11:58:44;21.40;1.00
2463;DHT22;1243;54.298;10.172;2022-08-19T12:01:15;21.50;1.00
2463;DHT22;1243;54.298;10.172;2022-08-19T12:03:42;21.40;1.00
2463;DHT22;1243;54.298;10.172;2022-08-19T12:06:12;21.50;1.00
2463;DHT22;1243;54.298;10.172;2022-08-19T12:08:41;21.50;1.00
2463;DHT22;1243;54.298;10.172;2022-08-19T12:11:08;21.40;1.00
2463;DHT22;1243;54.298;10.172;2022-08-19T12:14:14;21.40;1.00
2463;DHT22;1243;54.298;10.172;2022-08-19T12:17:04;21.40;1.00
2463;DHT22;1243;54.298;10.172;2022-08-19T12:19:33;21.40;1.00
2463;DHT22;1243;54.298;10.172;2022-08-19T12:22:00;21.40;1.00
2463;DHT22;1243;54.298;10.172;2022-08-19T12:24:30;21.30;1.00
2463;DHT22;1243;54.298;10.172;2022-08-19T12:26:57;21.30;1.00
2463;DHT22;1243;54.298;10.172;2022-08-19T12:29:39;21.30;1.00
2463;DHT22;1243;54.298;10.172;2022-08-19T12:32:05;21.20;1.00
2463;DHT22;1243;54.298;10.172;2022-08-19T12:34:32;21.30;1.00
2463;DHT22;1243;54.298;10.172;2022-08-19T12:37:00;21.20;1.00
2463;DHT22;1243;54.298;10.172;2022-08-19T12:39:26;21.30;1.00
2463;DHT22;1243;54.298;10.172;2022-08-19T12:41:52;21.20;1.00
2463;DHT22;1243;54.298;10.172;2022-08-19T12:44:19;21.20;1.00
2463;DHT22;1243;54.298;10.172;2022-08-19T12:46:44;21.10;1.00
2463;DHT22;1243;54.298;10.172;2022-08-19T12:49:10;21.10;1.00
2463;DHT22;1243;54.298;10.172;2022-08-19T12:51:36;21.10;1.00
2463;DHT22;1243;54.298;10.172;2022-08-19T12:54:02;21.10;1.00
2463;DHT22;1243;54.298;10.172;2022-08-19T12:56:29;21.10;1.00
2463;DHT22;1243;54.298;10.172;2022-08-19T12:58:54;21.10;1.00
2463;DHT22;1243;54.298;10.172;2022-08-19T13:01:21;21.20;1.00
2463;DHT22;1243;54.298;10.172;2022-08-19T13:03:47;21.20;1.00
2463;DHT22;1243;54.298;10.172;2022-08-19T13:06:13;21.20;1.00
2463;DHT22;1243;54.298;10.172;2022-08-19T13:08:39;21.30;1.00
2463;DHT22;1243;54.298;10.172;2022-08-19T13:11:17;21.40;1.00
2463;DHT22;1243;54.298;10.172;2022-08-19T13:13:46;21.40;1.00
2463;DHT22;1243;54.298;10.172;2022-08-19T13:16:13;21.40;1.00
2463;DHT22;1243;54.298;10.172;2022-08-19T13:18:41;21.40;1.00
2463;DHT22;1243;54.298;10.172;2022-08-19T13:21:09;21.50;1.00
2463;DHT22;1243;54.298;10.172;2022-08-19T13:23:38;21.50;1.00
2463;DHT22;1243;54.298;10.172;2022-08-19T13:26:05;21.50;1.00
2463;DHT22;1243;54.298;10.172;2022-08-19T13:28:32;21.50;1.00
2463;DHT22;1243;54.298;10.172;2022-08-19T13:31:18;21.50;1.00
2463;DHT22;1243;54.298;10.172;2022-08-19T13:34:03;21.50;1.00
2463;DHT22;1243;54.298;10.172;2022-08-19T13:36:32;21.50;1.00
2463;DHT22;1243;54.298;10.172;2022-08-19T13:38:57;21.60;1.00
2463;DHT22;1243;54.298;10.172;2022-08-19T13:41:24;21.60;1.00
2463;DHT22;1243;54.298;10.172;2022-08-19T13:43:49;21.70;1.00
2463;DHT22;1243;54.298;10.172;2022-08-19T13:46:15;21.70;1.00
2463;DHT22;1243;54.298;10.172;2022-08-19T13:48:41;21.90;1.00
2463;DHT22;1243;54.298;10.172;2022-08-19T13:51:07;21.90;1.00
2463;DHT22;1243;54.298;10.172;2022-08-19T13:53:36;21.90;1.00
2463;DHT22;1243;54.298;10.172;2022-08-19T13:56:12;21.80;1.00
2463;DHT22;1243;54.298;10.172;2022-08-19T13:58:38;21.80;1.00
2463;DHT22;1243;54.298;10.172;2022-08-19T14:01:04;21.70;1.00
2463;DHT22;1243;54.298;10.172;2022-08-19T14:03:34;21.70;1.00
2463;DHT22;1243;54.298;10.172;2022-08-19T14:06:00;21.70;1.00
2463;DHT22;1243;54.298;10.172;2022-08-19T14:08:26;21.70;1.00
2463;DHT22;1243;54.298;10.172;2022-08-19T14:10:54;21.60;1.00
2463;DHT22;1243;54.298;10.172;2022-08-19T14:13:22;21.50;1.00
2463;DHT22;1243;54.298;10.172;2022-08-19T14:15:49;21.60;1.00
2463;DHT22;1243;54.298;10.172;2022-08-19T14:18:17;21.60;1.00
2463;DHT22;1243;54.298;10.172;2022-08-19T14:20:44;21.60;1.00
2463;DHT22;1243;54.298;10.172;2022-08-19T14:23:10;21.70;1.00
2463;DHT22;1243;54.298;10.172;2022-08-19T14:25:38;21.70;1.00
2463;DHT22;1243;54.298;10.172;2022-08-19T14:28:03;21.70;1.00
2463;DHT22;1243;54.298;10.172;2022-08-19T14:30:49;21.70;1.00
2463;DHT22;1243;54.298;10.172;2022-08-19T14:33:15;21.70;1.00
2463;DHT22;1243;54.298;10.172;2022-08-19T14:35:41;21.60;1.00
2463;DHT22;1243;54.298;10.172;2022-08-19T14:38:16;21.60;1.00
2463;DHT22;1243;54.298;10.172;2022-08-19T14:40:42;21.50;1.00
2463;DHT22;1243;54.298;10.172;2022-08-19T14:43:08;21.50;1.00
2463;DHT22;1243;54.298;10.172;2022-08-19T14:45:37;21.50;1.00
2463;DHT22;1243;54.298;10.172;2022-08-19T14:48:07;21.50;1.00
2463;DHT22;1243;54.298;10.172;2022-08-19T14:50:34;21.50;1.00
2463;DHT22;1243;54.298;10.172;2022-08-19T14:53:06;21.60;1.00
2463;DHT22;1243;54.298;10.172;2022-08-19T14:55:32;21.60;1.00
2463;DHT22;1243;54.298;10.172;2022-08-19T14:57:59;21.70;1.00
2463;DHT22;1243;54.298;10.172;2022-08-19T15:00:24;21.70;1.00
2463;DHT22;1243;54.298;10.172;2022-08-19T15:02:50;21.80;1.00
2463;DHT22;1243;54.298;10.172;2022-08-19T15:05:16;21.80;1.00
2463;DHT22;1243;54.298;10.172;2022-08-19T15:07:43;21.90;1.00
2463;DHT22;1243;54.298;10.172;2022-08-19T15:10:11;22.00;1.00
2463;DHT22;1243;54.298;10.172;2022-08-19T15:12:38;22.20;1.00
2463;DHT22;1243;54.298;10.172;2022-08-19T15:15:13;22.30;1.00
2463;DHT22;1243;54.298;10.172;2022-08-19T15:17:40;22.50;1.00
2463;DHT22;1243;54.298;10.172;2022-08-19T15:20:07;22.70;1.00
2463;DHT22;1243;54.298;10.172;2022-08-19T15:22:33;22.70;1.00
2463;DHT22;1243;54.298;10.172;2022-08-19T15:25:01;22.70;1.00
2463;DHT22;1243;54.298;10.172;2022-08-19T15:27:27;22.60;1.00
2463;DHT22;1243;54.298;10.172;2022-08-19T15:29:53;22.60;1.00
2463;DHT22;1243;54.298;10.172;2022-08-19T15:32:18;22.50;1.00
2463;DHT22;1243;54.298;10.172;2022-08-19T15:34:44;22.50;1.00
2463;DHT22;1243;54.298;10.172;2022-08-19T15:37:14;22.40;1.00
2463;DHT22;1243;54.298;10.172;2022-08-19T15:39:40;22.30;1.00
2463;DHT22;1243;54.298;10.172;2022-08-19T15:42:06;22.20;1.00
2463;DHT22;1243;54.298;10.172;2022-08-19T15:44:32;22.00;1.00
2463;DHT22;1243;54.298;10.172;2022-08-19T15:46:58;22.00;1.00
2463;DHT22;1243;54.298;10.172;2022-08-19T15:49:24;22.00;1.00
2463;DHT22;1243;54.298;10.172;2022-08-19T15:51:50;21.90;1.00
2463;DHT22;1243;54.298;10.172;2022-08-19T15:54:22;21.90;1.00
2463;DHT22;1243;54.298;10.172;2022-08-19T15:56:49;21.90;1.00
2463;DHT22;1243;54.298;10.172;2022-08-19T15:59:35;21.90;1.00
2463;DHT22;1243;54.298;10.172;2022-08-19T16:02:22;22.00;1.00
2463;DHT22;1243;54.298;10.172;2022-08-19T16:05:09;22.10;1.00
2463;DHT22;1243;54.298;10.172;2022-08-19T16:07:53;22.10;1.00
2463;DHT22;1243;54.298;10.172;2022-08-19T16:10:19;22.20;1.00
2463;DHT22;1243;54.298;10.172;2022-08-19T16:12:45;22.20;1.00
2463;DHT22;1243;54.298;10.172;2022-08-19T16:15:12;22.20;1.00
2463;DHT22;1243;54.298;10.172;2022-08-19T16:17:40;22.10;1.00
2463;DHT22;1243;54.298;10.172;2022-08-19T16:20:07;22.10;1.00
2463;DHT22;1243;54.298;10.172;2022-08-19T16:22:34;22.10;1.00
2463;DHT22;1243;54.298;10.172;2022-08-19T16:25:00;22.10;1.00
2463;DHT22;1243;54.298;10.172;2022-08-19T16:27:27;22.00;1.00